createdAt,value
2018-04-24T00:00:58.778Z,99548
2018-04-24T00:03:01.928Z,99548
2018-04-24T00:05:06.982Z,99553
2018-04-24T00:07:10.918Z,99545
2018-04-24T00:09:14.064Z,99547
2018-04-24T00:11:17.240Z,99546
2018-04-24T00:13:20.377Z,99542
2018-04-24T00:15:23.546Z,99540
2018-04-24T00:17:26.879Z,99542
2018-04-24T00:19:30.063Z,99541
2018-04-24T00:21:33.984Z,99537
2018-04-24T00:23:37.896Z,99539
2018-04-24T00:25:41.839Z,99529
2018-04-24T00:27:45.743Z,99518
2018-04-24T00:29:48.914Z,99516
2018-04-24T00:31:52.059Z,99512
2018-04-24T00:33:56.003Z,99505
2018-04-24T00:35:59.951Z,99520
2018-04-24T00:38:03.089Z,99513
2018-04-24T00:40:07.385Z,99519
2018-04-24T00:42:10.555Z,99514
2018-04-24T00:44:14.462Z,99517
2018-04-24T00:46:17.622Z,99514
2018-04-24T00:48:21.138Z,99513
2018-04-24T00:50:24.283Z,99511
2018-04-24T00:52:27.879Z,99497
2018-04-24T00:54:31.042Z,99495
2018-04-24T00:56:35.001Z,99495
2018-04-24T00:58:38.152Z,99511
2018-04-24T01:00:42.038Z,99503
2018-04-24T01:02:45.639Z,99519
2018-04-24T01:04:49.482Z,99517
2018-04-24T01:06:53.323Z,99508
2018-04-24T01:08:56.855Z,99495
2018-04-24T01:11:00.370Z,99496
2018-04-24T01:13:04.207Z,99492
2018-04-24T01:15:08.864Z,99492
2018-04-24T01:17:14.039Z,99493
2018-04-24T01:19:17.602Z,99497
2018-04-24T01:21:21.509Z,99480
2018-04-24T01:23:25.082Z,99485
2018-04-24T01:25:29.746Z,99477
2018-04-24T01:27:33.360Z,99483
2018-04-24T01:29:37.279Z,99499
2018-04-24T01:31:41.562Z,99501
2018-04-24T01:33:45.482Z,99499
2018-04-24T01:35:50.447Z,99503
2018-04-24T01:37:54.323Z,99506
2018-04-24T01:40:21.083Z,99488
2018-04-24T01:42:47.694Z,99488
2018-04-24T01:45:15.404Z,99487
2018-04-24T01:47:18.569Z,99481
2018-04-24T01:49:22.486Z,99499
2018-04-24T01:51:25.651Z,99499
2018-04-24T01:53:29.912Z,99492
2018-04-24T01:55:33.146Z,99487
2018-04-24T01:57:37.074Z,99478
2018-04-24T01:59:41.011Z,99468
2018-04-24T02:01:44.153Z,99467
2018-04-24T02:03:47.328Z,99472
2018-04-24T02:05:50.496Z,99470
2018-04-24T02:07:54.981Z,99474
2018-04-24T02:09:59.785Z,99459
2018-04-24T02:12:04.508Z,99467
2018-04-24T02:14:09.665Z,99472
2018-04-24T02:16:14.784Z,99463
2018-04-24T02:18:21.387Z,99460
2018-04-24T02:27:07.679Z,99466
2018-04-24T02:29:11.100Z,99471
2018-04-24T02:31:14.252Z,99480
2018-04-24T02:33:18.190Z,99478
2018-04-24T02:35:22.108Z,99471
2018-04-24T02:37:26.028Z,99476
2018-04-24T02:39:29.969Z,99475
2018-04-24T02:41:33.910Z,99471
2018-04-24T02:43:37.083Z,99470
2018-04-24T02:45:40.292Z,99468
2018-04-24T02:47:44.235Z,99485
2018-04-24T02:49:48.139Z,99482
2018-04-24T02:51:52.471Z,99476
2018-04-24T02:53:55.716Z,99469
2018-04-24T02:56:00.035Z,99467
2018-04-24T02:58:03.292Z,99474
2018-04-24T03:00:06.447Z,99474
2018-04-24T03:02:10.377Z,99457
2018-04-24T03:04:14.322Z,99449
2018-04-24T03:06:17.473Z,99453
2018-04-24T03:08:20.654Z,99450
2018-04-24T03:10:23.831Z,99445
2018-04-24T03:12:27.006Z,99455
2018-04-24T03:14:30.162Z,99451
2018-04-24T03:16:33.346Z,99445
2018-04-24T03:18:37.259Z,99439
2018-04-24T03:20:41.547Z,99427
2018-04-24T03:22:45.238Z,99425
2018-04-24T03:24:49.098Z,99443
2018-04-24T03:26:53.556Z,99447
2018-04-24T03:28:57.527Z,99434
2018-04-24T03:31:01.078Z,99431
2018-04-24T03:33:04.232Z,99442
2018-04-24T03:35:08.173Z,99449
2018-04-24T03:37:11.895Z,99446
2018-04-24T03:39:15.452Z,99441
2018-04-24T03:41:19.091Z,99442
2018-04-24T03:43:22.799Z,99442
2018-04-24T03:45:26.511Z,99451
2018-04-24T03:47:30.029Z,99448
2018-04-24T03:49:34.120Z,99451
2018-04-24T03:51:38.351Z,99444
2018-04-24T03:53:41.804Z,99450
2018-04-24T03:55:45.321Z,99450
2018-04-24T03:57:49.015Z,99448
2018-04-24T03:59:52.583Z,99446
2018-04-24T04:01:56.278Z,99451
2018-04-24T04:03:59.961Z,99451
2018-04-24T04:06:03.519Z,99450
2018-04-24T04:08:07.033Z,99445
2018-04-24T04:10:10.712Z,99438
2018-04-24T04:12:14.279Z,99440
2018-04-24T04:14:17.423Z,99438
2018-04-24T04:16:21.389Z,99439
2018-04-24T04:18:43.390Z,99440
2018-04-24T04:21:05.980Z,99434
2018-04-24T04:23:29.012Z,99430
2018-04-24T04:25:32.193Z,99429
2018-04-24T04:27:35.353Z,99435
2018-04-24T04:29:38.540Z,99434
2018-04-24T04:31:41.716Z,99433
2018-04-24T04:33:45.088Z,99440
2018-04-24T04:35:48.331Z,99445
2018-04-24T04:37:51.788Z,99445
2018-04-24T04:39:55.008Z,99426
2018-04-24T04:41:58.188Z,99437
2018-04-24T04:44:02.107Z,99424
2018-04-24T04:46:06.051Z,99418
2018-04-24T04:48:09.199Z,99431
2018-04-24T04:50:12.431Z,99444
2018-04-24T04:52:16.280Z,99440
2018-04-24T04:54:20.196Z,99432
2018-04-24T04:56:25.311Z,99438
2018-04-24T04:58:28.779Z,99446
2018-04-24T05:00:32.006Z,99445
2018-04-24T05:02:35.562Z,99453
2018-04-24T05:04:39.477Z,99457
2018-04-24T05:06:42.655Z,99463
2018-04-24T05:08:45.804Z,99457
2018-04-24T05:10:48.988Z,99465
2018-04-24T05:12:52.135Z,99470
2018-04-24T05:14:55.981Z,99464
2018-04-24T05:16:59.147Z,99474
2018-04-24T05:19:03.484Z,99482
2018-04-24T05:21:06.638Z,99491
2018-04-24T05:23:09.782Z,99498
2018-04-24T05:25:13.067Z,99498
2018-04-24T05:27:16.211Z,99500
2018-04-24T05:29:19.366Z,99508
2018-04-24T05:31:22.552Z,99513
2018-04-24T05:33:25.782Z,99523
2018-04-24T05:35:29.715Z,99520
2018-04-24T05:37:32.863Z,99508
2018-04-24T05:39:36.448Z,99512
2018-04-24T05:41:39.636Z,99505
2018-04-24T05:43:43.557Z,99504
2018-04-24T05:45:47.494Z,99502
2018-04-24T05:47:50.638Z,99502
2018-04-24T05:49:53.789Z,99506
2018-04-24T05:51:57.754Z,99514
2018-04-24T05:54:00.911Z,99522
2018-04-24T05:56:04.091Z,99520
2018-04-24T05:58:07.287Z,99525
2018-04-24T06:00:10.440Z,99524
2018-04-24T06:02:13.589Z,99517
2018-04-24T06:04:17.213Z,99528
2018-04-24T06:06:20.402Z,99533
2018-04-24T06:08:23.567Z,99520
2018-04-24T06:10:27.483Z,99531
2018-04-24T06:12:30.675Z,99525
2018-04-24T06:14:33.855Z,99525
2018-04-24T06:16:37.286Z,99518
2018-04-24T06:18:40.642Z,99517
2018-04-24T06:20:44.647Z,99508
2018-04-24T06:22:47.796Z,99519
2018-04-24T06:24:51.721Z,99514
2018-04-24T06:26:55.672Z,99518
2018-04-24T06:28:58.849Z,99527
2018-04-24T06:31:02.223Z,99517
2018-04-24T06:33:05.692Z,99522
2018-04-24T06:35:08.947Z,99509
2018-04-24T06:37:12.459Z,99509
2018-04-24T06:39:15.618Z,99506
2018-04-24T06:41:19.575Z,99508
2018-04-24T06:43:22.734Z,99504
2018-04-24T06:45:25.965Z,99506
2018-04-24T06:47:29.910Z,99507
2018-04-24T06:49:33.064Z,99512
2018-04-24T06:51:36.219Z,99512
2018-04-24T06:53:39.413Z,99507
2018-04-24T06:55:43.367Z,99509
2018-04-24T06:57:46.518Z,99512
2018-04-24T06:59:49.671Z,99509
2018-04-24T07:01:52.852Z,99510
2018-04-24T07:03:56.774Z,99514
2018-04-24T07:06:00.704Z,99511
2018-04-24T07:08:04.651Z,99509
2018-04-24T07:10:07.804Z,99516
2018-04-24T07:12:10.996Z,99508
2018-04-24T07:14:14.144Z,99503
2018-04-24T07:16:17.323Z,99511
2018-04-24T07:18:20.507Z,99511
2018-04-24T07:20:23.656Z,99509
2018-04-24T07:22:26.831Z,99510
2018-04-24T07:24:29.987Z,99508
2018-04-24T07:26:33.213Z,99515
2018-04-24T07:28:37.163Z,99510
2018-04-24T07:30:44.193Z,99511
2018-04-24T07:32:47.470Z,99507
2018-04-24T07:34:53.445Z,99491
2018-04-24T07:36:58.365Z,99508
2018-04-24T07:39:02.600Z,99498
2018-04-24T07:41:07.352Z,99496
2018-04-24T07:43:10.756Z,99497
2018-04-24T07:45:14.716Z,99514
2018-04-24T07:47:17.875Z,99499
2018-04-24T07:49:22.176Z,99518
2018-04-24T07:51:25.458Z,99507
2018-04-24T07:53:28.647Z,99511
2018-04-24T07:55:32.554Z,99512
2018-04-24T07:57:35.988Z,99508
2018-04-24T07:59:40.024Z,99516
2018-04-24T08:01:43.207Z,99509
2018-04-24T08:03:46.443Z,99512
2018-04-24T08:05:49.610Z,99512
2018-04-24T08:07:52.797Z,99508
2018-04-24T08:09:56.004Z,99514
2018-04-24T08:11:59.223Z,99515
2018-04-24T08:14:02.399Z,99510
2018-04-24T08:16:07.140Z,99519
2018-04-24T08:18:12.414Z,99508
2018-04-24T08:20:18.334Z,99510
2018-04-24T08:22:23.493Z,99505
2018-04-24T08:24:26.813Z,99504
2018-04-24T08:26:29.992Z,99502
2018-04-24T08:28:33.196Z,99513
2018-04-24T08:30:36.368Z,99504
2018-04-24T08:32:39.567Z,99495
2018-04-24T08:34:42.751Z,99494
2018-04-24T08:36:46.699Z,99506
2018-04-24T08:38:49.882Z,99505
2018-04-24T08:40:53.819Z,99513
2018-04-24T08:42:57.000Z,99507
2018-04-24T08:45:00.944Z,99506
2018-04-24T08:47:06.020Z,99500
2018-04-24T08:49:09.757Z,99509
2018-04-24T08:51:12.937Z,99508
2018-04-24T08:53:16.111Z,99506
2018-04-24T08:55:19.315Z,99517
2018-04-24T08:57:23.255Z,99513
2018-04-24T08:59:27.297Z,99513
2018-04-24T09:01:31.231Z,99505
2018-04-24T09:03:34.412Z,99498
2018-04-24T09:05:38.360Z,99510
2018-04-24T09:07:41.549Z,99510
2018-04-24T09:09:46.619Z,99503
2018-04-24T09:11:49.799Z,99507
2018-04-24T09:13:53.017Z,99511
2018-04-24T09:15:56.186Z,99504
2018-04-24T09:17:59.766Z,99508
2018-04-24T09:20:02.958Z,99513
2018-04-24T09:22:07.899Z,99528
2018-04-24T09:24:11.077Z,99535
2018-04-24T09:26:14.266Z,99540
2018-04-24T09:28:17.435Z,99542
2018-04-24T09:30:21.385Z,99538
2018-04-24T09:32:24.554Z,99563
2018-04-24T09:34:27.744Z,99572
2018-04-24T09:36:30.923Z,99568
2018-04-24T09:38:34.096Z,99566
2018-04-24T09:40:38.043Z,99560
2018-04-24T09:42:41.214Z,99560
2018-04-24T09:44:44.392Z,99557
2018-04-24T09:46:47.797Z,99557
2018-04-24T09:48:50.973Z,99554
2018-04-24T09:50:54.172Z,99550
2018-04-24T09:52:58.919Z,99542
2018-04-24T09:55:02.100Z,99527
2018-04-24T09:57:05.294Z,99523
2018-04-24T09:59:08.470Z,99523
2018-04-24T10:01:11.655Z,99522
2018-04-24T10:03:14.850Z,99526
2018-04-24T10:05:18.823Z,99523
2018-04-24T10:07:22.040Z,99522
2018-04-24T10:09:25.239Z,99538
2018-04-24T10:11:28.658Z,99542
2018-04-24T10:13:31.874Z,99549
2018-04-24T10:15:35.966Z,99553
2018-04-24T10:17:39.147Z,99553
2018-04-24T10:19:43.104Z,99552
2018-04-24T10:21:46.307Z,99547
2018-04-24T10:23:49.493Z,99546
2018-04-24T10:25:53.439Z,99552
2018-04-24T10:27:56.620Z,99544
2018-04-24T10:30:00.569Z,99541
2018-04-24T10:32:03.907Z,99564
2018-04-24T10:34:07.090Z,99546
2018-04-24T10:36:10.280Z,99547
2018-04-24T10:38:14.217Z,99552
2018-04-24T10:40:18.183Z,99551
2018-04-24T10:42:21.363Z,99546
2018-04-24T10:44:24.539Z,99546
2018-04-24T10:46:30.339Z,99557
2018-04-24T10:48:33.530Z,99553
2018-04-24T10:50:39.619Z,99540
2018-04-24T10:52:42.825Z,99530
2018-04-24T10:54:45.999Z,99522
2018-04-24T10:56:51.504Z,99519
2018-04-24T10:58:54.685Z,99511
2018-04-24T11:00:58.651Z,99504
2018-04-24T11:03:01.831Z,99502
2018-04-24T11:05:05.016Z,99508
2018-04-24T11:07:08.985Z,99509
2018-04-24T11:09:12.187Z,99516
2018-04-24T11:11:15.367Z,99509
2018-04-24T11:13:19.611Z,99500
2018-04-24T11:15:23.859Z,99497
2018-04-24T11:17:27.049Z,99499
2018-04-24T11:19:31.707Z,99492
2018-04-24T11:21:34.890Z,99511
2018-04-24T11:23:38.067Z,99505
2018-04-24T11:25:41.266Z,99508
2018-04-24T11:27:44.444Z,99503
2018-04-24T11:29:47.627Z,99494
2018-04-24T11:31:51.692Z,99494
2018-04-24T11:33:54.897Z,99494
2018-04-24T11:35:58.100Z,99490
2018-04-24T11:38:01.329Z,99474
2018-04-24T11:40:04.503Z,99486
2018-04-24T11:42:08.455Z,99482
2018-04-24T11:44:11.643Z,99483
2018-04-24T11:46:17.568Z,99483
2018-04-24T11:48:21.704Z,99482
2018-04-24T11:50:25.362Z,99485
2018-04-24T11:52:29.313Z,99484
2018-04-24T11:54:32.558Z,99486
2018-04-24T11:56:35.760Z,99488
2018-04-24T11:58:38.991Z,99486
2018-04-24T12:00:42.425Z,99497
2018-04-24T12:02:45.628Z,99498
2018-04-24T12:04:49.578Z,99496
2018-04-24T12:06:52.754Z,99507
2018-04-24T12:08:56.080Z,99507
2018-04-24T12:11:00.044Z,99509
2018-04-24T12:13:03.283Z,99505
2018-04-24T12:15:07.980Z,99507
2018-04-24T12:17:12.271Z,99501
2018-04-24T12:19:15.692Z,99496
2018-04-24T12:21:19.687Z,99500
2018-04-24T12:23:22.983Z,99494
2018-04-24T12:25:26.164Z,99505
2018-04-24T12:27:29.347Z,99501
2018-04-24T12:29:33.489Z,99483
2018-04-24T12:31:37.451Z,99500
2018-04-24T12:33:40.643Z,99491
2018-04-24T12:35:43.828Z,99493
2018-04-24T12:37:47.782Z,99486
2018-04-24T12:39:50.958Z,99490
2018-04-24T12:41:54.944Z,99484
2018-04-24T12:43:58.123Z,99490
2018-04-24T12:46:01.308Z,99489
2018-04-24T12:48:04.498Z,99491
2018-04-24T12:50:07.679Z,99487
2018-04-24T12:52:10.879Z,99487
2018-04-24T12:54:14.060Z,99480
2018-04-24T12:56:17.258Z,99486
2018-04-24T12:58:21.207Z,99486
2018-04-24T13:00:24.378Z,99482
2018-04-24T13:02:29.148Z,99476
2018-04-24T13:04:33.332Z,99468
2018-04-24T13:06:36.483Z,99467
2018-04-24T13:08:39.659Z,99458
2018-04-24T13:10:42.839Z,99457
2018-04-24T13:12:46.328Z,99459
2018-04-24T13:14:49.504Z,99455
2018-04-24T13:16:54.571Z,99456
2018-04-24T13:18:58.519Z,99468
2018-04-24T13:21:01.704Z,99463
2018-04-24T13:23:05.655Z,99449
2018-04-24T13:25:08.901Z,99450
2018-04-24T13:27:12.259Z,99454
2018-04-24T13:29:15.440Z,99451
2018-04-24T13:31:18.784Z,99446
2018-04-24T13:33:22.731Z,99445
2018-04-24T13:35:25.936Z,99444
2018-04-24T13:37:29.134Z,99452
2018-04-24T13:39:32.728Z,99447
2018-04-24T13:41:36.904Z,99437
2018-04-24T13:43:40.077Z,99438
2018-04-24T13:45:43.263Z,99436
2018-04-24T13:47:46.435Z,99429
2018-04-24T13:49:49.622Z,99425
2018-04-24T13:51:53.046Z,99429
2018-04-24T13:53:56.239Z,99421
2018-04-24T13:56:00.415Z,99413
2018-04-24T13:58:03.591Z,99421
2018-04-24T14:00:06.777Z,99424
2018-04-24T14:02:09.973Z,99418
2018-04-24T14:04:13.927Z,99418
2018-04-24T14:06:17.211Z,99419
2018-04-24T14:08:20.724Z,99419
2018-04-24T14:10:24.921Z,99413
2018-04-24T14:12:28.178Z,99418
2018-04-24T14:14:31.432Z,99412
2018-04-24T14:16:34.615Z,99412
2018-04-24T14:18:37.798Z,99406
2018-04-24T14:20:41.748Z,99394
2018-04-24T14:22:44.931Z,99391
2018-04-24T14:24:48.879Z,99387
2018-04-24T14:26:52.223Z,99388
2018-04-24T14:28:56.540Z,99400
2018-04-24T14:30:59.725Z,99387
2018-04-24T14:33:02.986Z,99379
2018-04-24T14:35:06.171Z,99386
2018-04-24T14:37:09.695Z,99382
2018-04-24T14:39:12.823Z,99380
2018-04-24T14:41:17.527Z,99371
2018-04-24T14:43:20.716Z,99369
2018-04-24T14:45:23.925Z,99372
2018-04-24T14:47:27.120Z,99373
2018-04-24T14:49:31.065Z,99369
2018-04-24T14:51:34.339Z,99377
2018-04-24T14:53:37.480Z,99366
2018-04-24T14:55:40.773Z,99369
2018-04-24T14:57:44.723Z,99367
2018-04-24T14:59:47.907Z,99366
2018-04-24T15:01:51.867Z,99356
2018-04-24T15:03:55.045Z,99347
2018-04-24T15:05:59.090Z,99345
2018-04-24T15:08:03.063Z,99339
2018-04-24T15:10:06.249Z,99335
2018-04-24T15:12:09.449Z,99334
2018-04-24T15:14:12.640Z,99337
2018-04-24T15:16:15.822Z,99341
2018-04-24T15:18:20.899Z,99332
2018-04-24T15:20:24.138Z,99334
2018-04-24T15:22:27.325Z,99345
2018-04-24T15:24:30.730Z,99340
2018-04-24T15:26:33.922Z,99330
2018-04-24T15:28:37.979Z,99331
2018-04-24T15:30:41.432Z,99334
2018-04-24T15:32:44.617Z,99332
2018-04-24T15:34:47.828Z,99328
2018-04-24T15:36:51.043Z,99328
2018-04-24T15:38:54.240Z,99326
2018-04-24T15:40:57.453Z,99324
2018-04-24T15:43:01.758Z,99316
2018-04-24T15:45:04.936Z,99319
2018-04-24T15:47:08.205Z,99313
2018-04-24T15:49:11.390Z,99316
2018-04-24T15:51:14.566Z,99307
2018-04-24T15:53:17.757Z,99313
2018-04-24T15:55:22.074Z,99316
2018-04-24T15:57:25.283Z,99305
2018-04-24T15:59:28.764Z,99315
2018-04-24T16:01:31.946Z,99289
2018-04-24T16:03:35.891Z,99288
2018-04-24T16:05:39.066Z,99286
2018-04-24T16:07:42.465Z,99285
2018-04-24T16:09:45.672Z,99282
2018-04-24T16:11:48.859Z,99267
2018-04-24T16:13:52.038Z,99279
2018-04-24T16:15:55.250Z,99266
2018-04-24T16:17:58.427Z,99270
2018-04-24T16:20:01.648Z,99274
2018-04-24T16:22:05.591Z,99269
2018-04-24T16:24:08.839Z,99266
2018-04-24T16:26:11.971Z,99277
2018-04-24T16:28:15.183Z,99270
2018-04-24T16:30:18.358Z,99271
2018-04-24T16:32:21.540Z,99274
2018-04-24T16:34:24.992Z,99272
2018-04-24T16:36:28.168Z,99281
2018-04-24T16:38:31.356Z,99277
2018-04-24T16:40:35.592Z,99282
2018-04-24T16:42:38.788Z,99280
2018-04-24T16:44:42.732Z,99276
2018-04-24T16:46:45.928Z,99264
2018-04-24T16:48:49.867Z,99262
2018-04-24T16:50:53.050Z,99256
2018-04-24T16:52:56.223Z,99270
2018-04-24T16:54:59.402Z,99266
2018-04-24T16:57:02.579Z,99265
2018-04-24T16:59:06.551Z,99263
2018-04-24T17:01:09.745Z,99258
2018-04-24T17:03:12.926Z,99251
2018-04-24T17:05:16.128Z,99255
2018-04-24T17:07:20.388Z,99256
2018-04-24T17:09:23.567Z,99255
2018-04-24T17:11:27.554Z,99250
2018-04-24T17:13:30.710Z,99243
2018-04-24T17:15:34.661Z,99238
2018-04-24T17:17:37.852Z,99232
2018-04-24T17:19:41.798Z,99229
2018-04-24T17:21:44.976Z,99233
2018-04-24T17:23:48.923Z,99234
2018-04-24T17:25:52.091Z,99219
2018-04-24T17:27:55.270Z,99222
2018-04-24T17:29:58.451Z,99209
2018-04-24T17:32:01.851Z,99221
2018-04-24T17:34:06.096Z,99224
2018-04-24T17:36:09.279Z,99219
2018-04-24T17:38:13.226Z,99223
2018-04-24T17:40:16.402Z,99223
2018-04-24T17:42:19.591Z,99215
2018-04-24T17:44:22.779Z,99223
2018-04-24T17:46:25.951Z,99222
2018-04-24T17:48:29.907Z,99220
2018-04-24T17:50:33.084Z,99216
2018-04-24T17:52:37.025Z,99209
2018-04-24T17:54:40.213Z,99203
2018-04-24T17:56:44.159Z,99207
2018-04-24T17:58:47.332Z,99208
2018-04-24T18:00:50.520Z,99198
2018-04-24T18:02:53.699Z,99205
2018-04-24T18:04:56.887Z,99198
2018-04-24T18:07:00.818Z,99192
2018-04-24T18:09:03.994Z,99191
2018-04-24T18:11:07.188Z,99187
2018-04-24T18:13:10.360Z,99187
2018-04-24T18:15:13.526Z,99189
2018-04-24T18:17:17.730Z,99190
2018-04-24T18:19:21.847Z,99196
2018-04-24T18:21:25.032Z,99188
2018-04-24T18:23:28.639Z,99190
2018-04-24T18:25:31.816Z,99183
2018-04-24T18:27:36.961Z,99177
2018-04-24T18:29:40.147Z,99184
2018-04-24T18:31:43.328Z,99184
2018-04-24T18:33:46.520Z,99192
2018-04-24T18:35:50.488Z,99185
2018-04-24T18:37:53.700Z,99178
2018-04-24T18:39:57.663Z,99177
2018-04-24T18:42:00.836Z,99183
2018-04-24T18:44:04.516Z,99192
2018-04-24T18:46:07.702Z,99184
2018-04-24T18:48:11.651Z,99191
2018-04-24T18:50:14.822Z,99185
2018-04-24T18:52:19.769Z,99184
2018-04-24T18:54:22.961Z,99175
2018-04-24T18:56:26.136Z,99176
2018-04-24T18:58:29.314Z,99179
2018-04-24T19:00:33.273Z,99179
2018-04-24T19:02:36.460Z,99183
2018-04-24T19:04:39.635Z,99180
2018-04-24T19:06:42.811Z,99177
2018-04-24T19:08:45.978Z,99180
2018-04-24T19:10:49.939Z,99179
2018-04-24T19:12:53.116Z,99176
2018-04-24T19:14:57.063Z,99175
2018-04-24T19:17:00.242Z,99185
2018-04-24T19:19:09.716Z,99184
2018-04-24T19:21:12.954Z,99174
2018-04-24T19:23:16.139Z,99180
2018-04-24T19:25:24.904Z,99175
2018-04-24T19:27:28.089Z,99178
2018-04-24T19:29:31.679Z,99177
2018-04-24T19:31:41.280Z,99165
2018-04-24T19:33:44.472Z,99175
2018-04-24T19:35:51.330Z,99175
2018-04-24T19:37:55.262Z,99164
2018-04-24T19:40:04.886Z,99158
2018-04-24T19:42:08.922Z,99154
2018-04-24T19:44:13.643Z,99161
2018-04-24T19:46:17.038Z,99160
2018-04-24T19:48:25.888Z,99166
2018-04-24T19:50:30.476Z,99161
2018-04-24T19:52:36.238Z,99156
2018-04-24T19:54:48.201Z,99156
2018-04-24T19:56:56.878Z,99147
2018-04-24T19:59:01.687Z,99150
2018-04-24T20:01:06.781Z,99148
2018-04-24T20:03:11.018Z,99147
2018-04-24T20:05:14.326Z,99154
2018-04-24T20:07:18.552Z,99152
2018-04-24T20:09:22.498Z,99147
2018-04-24T20:11:25.680Z,99145
2018-04-24T20:13:28.854Z,99137
2018-04-24T20:15:32.048Z,99134
2018-04-24T20:17:35.231Z,99140
2018-04-24T20:19:38.403Z,99135
2018-04-24T20:21:41.584Z,99131
2018-04-24T20:23:44.811Z,99129
2018-04-24T20:25:48.163Z,99124
2018-04-24T20:27:51.361Z,99120
2018-04-24T20:29:55.340Z,99123
2018-04-24T20:31:58.528Z,99123
2018-04-24T20:34:01.723Z,99125
2018-04-24T20:36:04.907Z,99110
2018-04-24T20:38:08.847Z,99126
2018-04-24T20:40:12.787Z,99122
2018-04-24T20:42:15.964Z,99119
2018-04-24T20:44:19.902Z,99111
2018-04-24T20:46:23.844Z,99110
2018-04-24T20:48:28.483Z,99103
2018-04-24T20:50:31.699Z,99109
2018-04-24T20:52:34.919Z,99109
2018-04-24T20:54:39.872Z,99104
2018-04-24T20:56:45.167Z,99096
2018-04-24T20:58:48.466Z,99097
2018-04-24T21:00:52.178Z,99092
2018-04-24T21:02:55.331Z,99076
2018-04-24T21:04:59.613Z,99079
2018-04-24T21:07:03.308Z,99079
2018-04-24T21:09:07.108Z,99080
2018-04-24T21:11:11.399Z,99081
2018-04-24T21:13:14.810Z,99079
2018-04-24T21:15:18.702Z,99062
2018-04-24T21:17:21.879Z,99064
2018-04-24T21:19:25.896Z,99066
2018-04-24T21:21:29.335Z,99056
2018-04-24T21:23:33.280Z,99060
2018-04-24T21:25:36.468Z,99051
2018-04-24T21:27:40.677Z,99050
2018-04-24T21:29:45.651Z,99043
2018-04-24T21:31:51.048Z,99035
2018-04-24T21:33:54.228Z,99040
2018-04-24T21:35:57.416Z,99042
2018-04-24T21:38:00.592Z,99047
2018-04-24T21:40:03.768Z,99039
2018-04-24T21:42:06.923Z,99031
2018-04-24T21:44:12.611Z,99027
2018-04-24T21:46:16.600Z,99027
2018-04-24T21:48:19.751Z,99024
2018-04-24T21:50:23.695Z,99018
2018-04-24T21:52:26.879Z,99013
2018-04-24T21:54:30.787Z,99014
2018-04-24T21:56:34.742Z,99019
2018-04-24T21:58:37.893Z,99007
2018-04-24T22:00:41.586Z,99008
2018-04-24T22:02:44.765Z,99003
2018-04-24T22:04:48.989Z,98990
2018-04-24T22:06:52.902Z,98984
2018-04-24T22:08:56.814Z,98984
2018-04-24T22:10:59.987Z,98978
2018-04-24T22:13:03.135Z,98982
2018-04-24T22:15:06.299Z,98973
2018-04-24T22:17:11.372Z,98971
2018-04-24T22:19:14.525Z,98964
2018-04-24T22:21:18.453Z,98971
2018-04-24T22:23:22.396Z,98965
2018-04-24T22:25:25.547Z,98968
2018-04-24T22:27:28.735Z,98958
2018-04-24T22:29:31.891Z,98950
2018-04-24T22:31:35.825Z,98955
2018-04-24T22:33:39.788Z,98954
2018-04-24T22:35:42.938Z,98943
2018-04-24T22:37:46.092Z,98953
2018-04-24T22:39:49.271Z,98945
2018-04-24T22:41:52.460Z,98944
2018-04-24T22:43:56.384Z,98946
2018-04-24T22:45:59.534Z,98939
2018-04-24T22:48:02.719Z,98935
2018-04-24T22:50:05.867Z,98928
2018-04-24T22:52:09.024Z,98926
2018-04-24T22:54:12.208Z,98921
2018-04-24T22:56:15.362Z,98917
2018-04-24T22:58:19.275Z,98920
2018-04-24T23:00:22.451Z,98913
2018-04-24T23:02:25.623Z,98916
2018-04-24T23:04:28.803Z,98912
2018-04-24T23:06:32.848Z,98907
2018-04-24T23:08:36.792Z,98898
2018-04-24T23:10:58.168Z,98895
2018-04-24T23:13:19.204Z,98896
2018-04-24T23:15:41.220Z,98888
2018-04-24T23:18:02.366Z,98881
2018-04-24T23:20:16.547Z,98882
2018-04-24T23:22:36.019Z,98879
2018-04-24T23:24:39.587Z,98869
2018-04-24T23:26:42.796Z,98876
2018-04-24T23:28:45.991Z,98869
2018-04-24T23:30:49.138Z,98873
2018-04-24T23:32:54.283Z,98874
2018-04-24T23:34:57.468Z,98876
2018-04-24T23:37:00.623Z,98871
2018-04-24T23:39:03.795Z,98856
2018-04-24T23:41:06.984Z,98859
2018-04-24T23:43:10.136Z,98865
2018-04-24T23:45:14.057Z,98863
2018-04-24T23:47:18.007Z,98850
2018-04-24T23:49:21.200Z,98853
2018-04-24T23:51:25.123Z,98846
2018-04-24T23:53:29.035Z,98850
2018-04-24T23:55:33.331Z,98837
2018-04-24T23:57:36.512Z,98839
2018-04-24T23:59:40.026Z,98838
